createdAt,value
2018-12-25T00:03:55.831Z,60.90
2018-12-25T00:09:02.615Z,60.90
2018-12-25T00:14:08.500Z,61.00
2018-12-25T00:19:15.976Z,60.90
2018-12-25T00:24:29.466Z,60.90
2018-12-25T00:29:35.751Z,61.00
2018-12-25T00:34:42.481Z,60.90
2018-12-25T00:39:47.994Z,60.80
2018-12-25T00:44:57.679Z,60.80
2018-12-25T00:50:04.584Z,60.80
2018-12-25T00:55:10.654Z,60.70
2018-12-25T01:00:17.427Z,60.70
2018-12-25T01:05:22.987Z,60.70
2018-12-25T01:10:29.520Z,60.70
2018-12-25T01:15:35.305Z,60.60
2018-12-25T01:20:43.109Z,60.80
2018-12-25T01:25:48.200Z,60.70
2018-12-25T01:30:54.625Z,60.70
2018-12-25T01:35:59.086Z,60.60
2018-12-25T01:41:04.813Z,60.60
2018-12-25T01:46:14.686Z,60.70
2018-12-25T01:51:20.991Z,60.60
2018-12-25T01:56:25.829Z,60.60
2018-12-25T02:01:32.712Z,60.50
2018-12-25T02:06:38.316Z,60.60
2018-12-25T02:11:44.472Z,60.60
2018-12-25T02:16:56.556Z,60.60
2018-12-25T02:22:02.228Z,60.50
2018-12-25T02:27:09.763Z,60.40
2018-12-25T02:32:17.300Z,60.40
2018-12-25T02:37:23.080Z,60.40
2018-12-25T02:42:29.195Z,60.40
2018-12-25T02:47:36.183Z,60.30
2018-12-25T02:52:43.582Z,60.40
2018-12-25T02:57:53.724Z,60.30
2018-12-25T03:03:02.009Z,60.20
2018-12-25T03:08:08.688Z,60.30
2018-12-25T03:13:14.371Z,60.20
2018-12-25T03:18:21.173Z,60.20
2018-12-25T03:23:28.379Z,60.20
2018-12-25T03:28:33.115Z,60.40
2018-12-25T03:33:40.313Z,60.30
2018-12-25T03:38:46.140Z,60.30
2018-12-25T03:43:58.776Z,60.30
2018-12-25T03:49:07.112Z,60.20
2018-12-25T03:54:14.075Z,60.10
2018-12-25T03:59:21.071Z,60.20
2018-12-25T04:04:29.046Z,60.10
2018-12-25T04:09:34.462Z,60.10
2018-12-25T04:14:41.003Z,61.00
2018-12-25T04:19:48.272Z,60.20
2018-12-25T04:25:39.359Z,60.20
2018-12-25T04:30:48.814Z,60.10
2018-12-25T04:35:56.109Z,60.00
2018-12-25T04:41:02.233Z,60.00
2018-12-25T04:46:08.196Z,60.00
2018-12-25T04:51:15.061Z,60.00
2018-12-25T04:56:21.927Z,60.00
2018-12-25T05:01:30.706Z,60.00
2018-12-25T05:06:36.446Z,60.00
2018-12-25T05:11:43.069Z,60.00
2018-12-25T05:16:50.162Z,60.00
2018-12-25T05:22:08.007Z,60.00
2018-12-25T05:27:14.011Z,59.80
2018-12-25T05:32:20.181Z,59.90
2018-12-25T05:37:28.173Z,59.90
2018-12-25T05:42:33.235Z,60.00
2018-12-25T05:47:38.612Z,59.90
2018-12-25T05:52:44.330Z,59.90
2018-12-25T05:57:50.760Z,59.80
2018-12-25T06:03:03.024Z,59.90
2018-12-25T06:08:08.669Z,59.90
2018-12-25T06:13:14.905Z,59.90
2018-12-25T06:18:21.312Z,59.80
2018-12-25T06:23:27.590Z,59.80
2018-12-25T06:28:34.621Z,59.90
2018-12-25T06:33:40.494Z,59.80
2018-12-25T06:38:47.865Z,59.90
2018-12-25T06:43:53.610Z,59.80
2018-12-25T06:49:00.876Z,59.80
2018-12-25T06:54:06.850Z,59.80
2018-12-25T06:59:12.999Z,59.80
2018-12-25T07:04:21.103Z,59.70
2018-12-25T07:09:28.718Z,59.80
2018-12-25T07:14:35.068Z,59.80
2018-12-25T07:19:40.744Z,59.70
2018-12-25T07:24:48.333Z,59.80
2018-12-25T07:29:55.651Z,59.70
2018-12-25T07:35:02.189Z,59.70
2018-12-25T07:40:09.094Z,59.80
2018-12-25T07:45:15.371Z,59.80
2018-12-25T07:50:21.669Z,59.80
2018-12-25T07:55:27.653Z,59.80
2018-12-25T08:00:34.176Z,59.70
2018-12-25T08:05:41.113Z,59.70
2018-12-25T08:10:46.665Z,59.70
2018-12-25T08:15:54.647Z,59.70
2018-12-25T08:21:01.039Z,59.80
2018-12-25T08:26:08.380Z,59.70
2018-12-25T08:31:17.193Z,59.60
2018-12-25T08:36:22.839Z,59.60
2018-12-25T08:41:28.817Z,59.60
2018-12-25T08:46:37.792Z,59.70
2018-12-25T08:51:43.965Z,59.60
2018-12-25T08:56:49.766Z,59.60
2018-12-25T09:01:57.617Z,60.20
2018-12-25T09:07:03.353Z,59.60
2018-12-25T09:12:09.246Z,59.50
2018-12-25T09:17:15.693Z,59.50
2018-12-25T09:22:26.073Z,59.40
2018-12-25T09:27:31.829Z,59.40
2018-12-25T09:32:37.620Z,59.40
2018-12-25T09:37:43.347Z,59.40
2018-12-25T09:42:49.150Z,59.50
2018-12-25T09:47:55.638Z,59.50
2018-12-25T09:53:01.189Z,59.50
2018-12-25T09:58:07.244Z,59.40
2018-12-25T10:03:13.032Z,59.40
2018-12-25T10:08:18.384Z,59.50
2018-12-25T10:13:24.793Z,59.30
2018-12-25T10:18:30.829Z,59.40
2018-12-25T10:23:37.278Z,59.30
2018-12-25T10:28:43.582Z,59.30
2018-12-25T10:33:49.121Z,59.30
2018-12-25T10:38:55.951Z,59.20
2018-12-25T10:44:04.316Z,59.20
2018-12-25T10:49:10.377Z,59.10
2018-12-25T10:54:16.198Z,59.70
2018-12-25T10:59:21.944Z,59.20
2018-12-25T11:04:28.909Z,59.20
2018-12-25T11:09:34.460Z,59.20
2018-12-25T11:14:45.334Z,59.20
2018-12-25T11:19:52.685Z,59.20
2018-12-25T11:24:58.032Z,59.20
2018-12-25T11:30:06.966Z,59.00
2018-12-25T11:35:13.780Z,59.00
2018-12-25T11:40:21.722Z,59.00
2018-12-25T11:45:28.654Z,59.00
2018-12-25T11:50:34.943Z,58.90
2018-12-25T11:55:42.156Z,59.00
2018-12-25T12:00:47.728Z,58.90
2018-12-25T12:05:55.501Z,58.90
2018-12-25T12:11:01.871Z,58.90
2018-12-25T12:16:12.557Z,58.90
2018-12-25T12:21:18.778Z,58.90
2018-12-25T12:26:24.837Z,58.80
2018-12-25T12:31:33.687Z,58.80
2018-12-25T12:36:39.734Z,58.80
2018-12-25T12:41:46.208Z,58.80
2018-12-25T12:46:52.324Z,58.80
2018-12-25T12:51:58.717Z,58.70
2018-12-25T12:57:04.428Z,58.70
2018-12-25T13:02:11.600Z,58.70
2018-12-25T13:07:18.957Z,58.80
2018-12-25T13:12:24.773Z,58.70
2018-12-25T13:17:47.886Z,58.70
2018-12-25T13:22:54.540Z,58.70
2018-12-25T13:28:00.282Z,58.60
2018-12-25T13:33:07.323Z,58.60
2018-12-25T13:38:13.611Z,58.60
2018-12-25T13:43:19.381Z,58.60
2018-12-25T13:48:25.598Z,58.60
2018-12-25T13:53:32.759Z,58.70
2018-12-25T13:58:40.547Z,58.60
2018-12-25T14:03:46.479Z,58.70
2018-12-25T14:08:52.272Z,58.70
2018-12-25T14:13:57.729Z,58.60
2018-12-25T14:19:05.612Z,58.60
2018-12-25T14:24:11.618Z,58.70
2018-12-25T14:29:18.030Z,58.70
2018-12-25T14:34:23.085Z,58.60
2018-12-25T14:39:29.401Z,58.60
2018-12-25T14:44:36.920Z,58.70
2018-12-25T14:49:44.301Z,58.70
2018-12-25T14:54:51.299Z,58.60
2018-12-25T15:00:18.545Z,59.20
2018-12-25T15:05:24.821Z,58.70
2018-12-25T15:10:30.925Z,58.70
2018-12-25T15:15:37.876Z,58.60
2018-12-25T15:20:44.266Z,59.10
2018-12-25T15:25:51.088Z,58.50
2018-12-25T15:30:57.469Z,59.20
2018-12-25T15:36:03.425Z,58.60
2018-12-25T15:41:09.924Z,58.60
2018-12-25T15:46:16.837Z,58.50
2018-12-25T15:51:25.775Z,58.50
2018-12-25T15:56:32.627Z,58.60
2018-12-25T16:01:39.586Z,58.40
2018-12-25T16:06:46.449Z,58.50
2018-12-25T16:11:51.901Z,58.50
2018-12-25T16:16:57.806Z,58.40
2018-12-25T16:22:04.108Z,58.40
2018-12-25T16:27:10.357Z,58.40
2018-12-25T16:32:17.231Z,58.40
2018-12-25T16:37:23.965Z,58.40
2018-12-25T16:42:30.592Z,58.30
2018-12-25T16:47:36.806Z,58.30
2018-12-25T16:52:43.178Z,58.30
2018-12-25T16:58:03.223Z,58.30
2018-12-25T17:03:09.451Z,58.60
2018-12-25T17:08:15.741Z,58.30
2018-12-25T17:13:22.335Z,58.20
2018-12-25T17:18:28.674Z,58.30
2018-12-25T17:24:26.688Z,58.30
2018-12-25T17:29:32.863Z,58.20
2018-12-25T17:34:39.731Z,58.20
2018-12-25T17:39:45.992Z,58.10
2018-12-25T17:44:52.796Z,58.20
2018-12-25T17:49:59.099Z,58.10
2018-12-25T17:55:04.439Z,58.20
2018-12-25T18:00:25.897Z,58.80
2018-12-25T18:05:33.966Z,58.10
2018-12-25T18:10:38.857Z,58.10
2018-12-25T18:16:05.649Z,58.20
2018-12-25T18:21:14.374Z,58.20
2018-12-25T18:26:19.950Z,58.10
2018-12-25T18:31:26.578Z,58.10
2018-12-25T18:36:33.304Z,57.80
2018-12-25T18:41:40.292Z,58.10
2018-12-25T18:46:47.536Z,58.00
2018-12-25T18:51:54.104Z,58.00
2018-12-25T18:57:00.863Z,58.00
2018-12-25T19:02:10.356Z,57.90
2018-12-25T19:07:16.364Z,57.90
2018-12-25T19:12:22.659Z,58.00
2018-12-25T19:17:28.566Z,58.00
2018-12-25T19:22:35.357Z,58.00
2018-12-25T19:27:47.374Z,57.80
2018-12-25T19:32:54.637Z,58.50
2018-12-25T19:38:01.750Z,57.90
2018-12-25T19:43:08.173Z,57.80
2018-12-25T19:48:15.385Z,57.80
2018-12-25T19:53:22.477Z,57.80
2018-12-25T19:58:28.981Z,57.80
2018-12-25T20:04:06.801Z,57.70
2018-12-25T20:09:49.010Z,57.70
2018-12-25T20:15:44.098Z,57.70
2018-12-25T20:21:25.120Z,57.70
2018-12-25T20:26:59.558Z,57.70
2018-12-25T20:32:42.817Z,57.70
2018-12-25T20:38:19.878Z,57.80
2018-12-25T20:43:56.687Z,57.70
2018-12-25T20:49:27.826Z,57.70
2018-12-25T20:55:28.644Z,57.60
2018-12-25T21:01:11.557Z,57.70
2018-12-25T21:06:54.381Z,57.80
2018-12-25T21:12:44.779Z,57.70
2018-12-25T21:18:28.499Z,57.80
2018-12-25T21:24:09.163Z,57.70
2018-12-25T21:29:15.790Z,57.70
2018-12-25T21:34:24.885Z,57.60
2018-12-25T21:39:30.969Z,57.70
2018-12-25T21:44:37.300Z,57.70
2018-12-25T21:49:48.545Z,57.60
2018-12-25T21:54:57.265Z,57.70
2018-12-25T22:00:04.181Z,57.70
2018-12-25T22:05:10.101Z,57.60
2018-12-25T22:10:16.692Z,58.20
2018-12-25T22:15:23.600Z,57.60
2018-12-25T22:20:36.690Z,57.60
2018-12-25T22:25:43.202Z,58.20
2018-12-25T22:30:51.365Z,57.60
2018-12-25T22:35:59.655Z,57.50
2018-12-25T22:41:06.964Z,57.50
2018-12-25T22:46:16.134Z,57.50
2018-12-25T22:51:23.321Z,57.40
2018-12-25T22:56:31.078Z,57.40
2018-12-25T23:01:37.938Z,57.40
2018-12-25T23:06:44.823Z,57.40
2018-12-25T23:11:51.244Z,57.40
2018-12-25T23:16:58.554Z,57.30
2018-12-25T23:22:06.202Z,57.30
2018-12-25T23:27:11.689Z,57.30
2018-12-25T23:32:18.905Z,57.40
2018-12-25T23:37:25.674Z,57.40
2018-12-25T23:42:32.652Z,57.30
2018-12-25T23:47:38.494Z,57.20
2018-12-25T23:52:45.950Z,57.20
2018-12-25T23:57:51.939Z,57.30
